sensor_id;sensor_type;location;lat;lon;timestamp;P1;durP1;ratioP1;P2;durP2;ratioP2
2712;SDS011;1366;47.988;7.856;2022-09-25T04:02:05;3.70;;;3.40;;
2712;SDS011;1366;47.988;7.856;2022-09-25T04:04:31;3.80;;;3.50;;
2712;SDS011;1366;47.988;7.856;2022-09-25T04:06:57;3.87;;;3.50;;
2712;SDS011;1366;47.988;7.856;2022-09-25T04:09:23;3.50;;;3.30;;
2712;SDS011;1366;47.988;7.856;2022-09-25T04:11:49;3.87;;;3.57;;
2712;SDS011;1366;47.988;7.856;2022-09-25T04:14:15;3.50;;;3.30;;
2712;SDS011;1366;47.988;7.856;2022-09-25T04:16:41;3.97;;;3.67;;
2712;SDS011;1366;47.988;7.856;2022-09-25T04:19:08;4.20;;;3.90;;
2712;SDS011;1366;47.988;7.856;2022-09-25T04:21:34;4.77;;;4.37;;
2712;SDS011;1366;47.988;7.856;2022-09-25T04:24:00;3.93;;;3.63;;
2712;SDS011;1366;47.988;7.856;2022-09-25T04:26:45;4.60;;;3.60;;
2712;SDS011;1366;47.988;7.856;2022-09-25T04:29:11;3.90;;;3.60;;
2712;SDS011;1366;47.988;7.856;2022-09-25T04:31:39;4.23;;;3.93;;
2712;SDS011;1366;47.988;7.856;2022-09-25T04:34:05;4.30;;;3.80;;
2712;SDS011;1366;47.988;7.856;2022-09-25T04:36:31;4.13;;;3.67;;
2712;SDS011;1366;47.988;7.856;2022-09-25T04:38:57;4.27;;;3.97;;
2712;SDS011;1366;47.988;7.856;2022-09-25T04:41:23;4.10;;;3.80;;
2712;SDS011;1366;47.988;7.856;2022-09-25T04:43:49;3.70;;;3.50;;
2712;SDS011;1366;47.988;7.856;2022-09-25T04:46:15;4.40;;;4.00;;
2712;SDS011;1366;47.988;7.856;2022-09-25T04:48:45;4.07;;;3.77;;
2712;SDS011;1366;47.988;7.856;2022-09-25T04:51:11;3.80;;;3.60;;
2712;SDS011;1366;47.988;7.856;2022-09-25T04:53:37;4.10;;;3.80;;
2712;SDS011;1366;47.988;7.856;2022-09-25T04:56:05;4.40;;;4.00;;
2712;SDS011;1366;47.988;7.856;2022-09-25T04:58:32;3.87;;;3.57;;
2712;SDS011;1366;47.988;7.856;2022-09-25T05:01:05;5.63;;;3.70;;
2712;SDS011;1366;47.988;7.856;2022-09-25T05:03:32;4.60;;;4.17;;
2712;SDS011;1366;47.988;7.856;2022-09-25T05:05:58;3.83;;;3.53;;
2712;SDS011;1366;47.988;7.856;2022-09-25T05:08:25;3.83;;;3.63;;
2712;SDS011;1366;47.988;7.856;2022-09-25T05:10:51;4.07;;;3.77;;
2712;SDS011;1366;47.988;7.856;2022-09-25T05:13:17;4.23;;;3.93;;
2712;SDS011;1366;47.988;7.856;2022-09-25T05:15:43;3.97;;;3.67;;
2712;SDS011;1366;47.988;7.856;2022-09-25T05:18:20;3.80;;;3.60;;
2712;SDS011;1366;47.988;7.856;2022-09-25T05:20:46;4.47;;;4.07;;
2712;SDS011;1366;47.988;7.856;2022-09-25T05:23:12;4.60;;;3.57;;
2712;SDS011;1366;47.988;7.856;2022-09-25T05:25:39;4.00;;;3.70;;
2712;SDS011;1366;47.988;7.856;2022-09-25T05:28:05;4.13;;;3.73;;
2712;SDS011;1366;47.988;7.856;2022-09-25T05:30:32;3.90;;;3.50;;
2712;SDS011;1366;47.988;7.856;2022-09-25T05:32:58;4.17;;;3.87;;
2712;SDS011;1366;47.988;7.856;2022-09-25T05:35:26;3.53;;;3.23;;
2712;SDS011;1366;47.988;7.856;2022-09-25T05:37:52;3.70;;;3.50;;
2712;SDS011;1366;47.988;7.856;2022-09-25T05:40:19;3.93;;;3.63;;
2712;SDS011;1366;47.988;7.856;2022-09-25T05:42:45;3.70;;;3.40;;
2712;SDS011;1366;47.988;7.856;2022-09-25T05:45:18;4.03;;;3.73;;
2712;SDS011;1366;47.988;7.856;2022-09-25T05:47:45;4.40;;;4.10;;
2712;SDS011;1366;47.988;7.856;2022-09-25T05:50:12;3.63;;;3.43;;
2712;SDS011;1366;47.988;7.856;2022-09-25T05:52:38;3.90;;;3.60;;
2712;SDS011;1366;47.988;7.856;2022-09-25T05:55:05;4.37;;;3.97;;
2712;SDS011;1366;47.988;7.856;2022-09-25T05:57:32;3.90;;;3.60;;
2712;SDS011;1366;47.988;7.856;2022-09-25T05:59:59;4.10;;;3.80;;
2712;SDS011;1366;47.988;7.856;2022-09-25T06:02:25;3.60;;;3.40;;
2712;SDS011;1366;47.988;7.856;2022-09-25T06:04:52;4.20;;;3.90;;
2712;SDS011;1366;47.988;7.856;2022-09-25T06:07:18;4.10;;;3.73;;
2712;SDS011;1366;47.988;7.856;2022-09-25T06:09:44;4.13;;;3.73;;
2712;SDS011;1366;47.988;7.856;2022-09-25T06:12:10;4.00;;;3.70;;
2712;SDS011;1366;47.988;7.856;2022-09-25T06:14:36;4.07;;;3.73;;
2712;SDS011;1366;47.988;7.856;2022-09-25T06:17:02;3.80;;;3.50;;
2712;SDS011;1366;47.988;7.856;2022-09-25T06:19:28;4.33;;;3.93;;
2712;SDS011;1366;47.988;7.856;2022-09-25T06:21:55;4.50;;;4.20;;
2712;SDS011;1366;47.988;7.856;2022-09-25T06:24:22;4.00;;;3.70;;
2712;SDS011;1366;47.988;7.856;2022-09-25T06:26:48;4.07;;;3.77;;
2712;SDS011;1366;47.988;7.856;2022-09-25T06:29:14;4.20;;;3.90;;
2712;SDS011;1366;47.988;7.856;2022-09-25T06:31:40;4.07;;;3.67;;
2712;SDS011;1366;47.988;7.856;2022-09-25T06:34:07;4.00;;;3.70;;
2712;SDS011;1366;47.988;7.856;2022-09-25T06:36:39;4.40;;;4.10;;
2712;SDS011;1366;47.988;7.856;2022-09-25T06:39:05;4.50;;;4.20;;
2712;SDS011;1366;47.988;7.856;2022-09-25T06:41:31;4.83;;;4.47;;
2712;SDS011;1366;47.988;7.856;2022-09-25T06:43:57;5.43;;;4.93;;
2712;SDS011;1366;47.988;7.856;2022-09-25T06:46:24;6.13;;;5.57;;
2712;SDS011;1366;47.988;7.856;2022-09-25T06:48:50;5.30;;;4.90;;
2712;SDS011;1366;47.988;7.856;2022-09-25T06:51:20;5.30;;;4.90;;
2712;SDS011;1366;47.988;7.856;2022-09-25T06:53:46;5.47;;;5.07;;
2712;SDS011;1366;47.988;7.856;2022-09-25T06:56:12;4.60;;;4.30;;
2712;SDS011;1366;47.988;7.856;2022-09-25T06:58:39;5.63;;;5.13;;
2712;SDS011;1366;47.988;7.856;2022-09-25T07:01:05;5.67;;;5.27;;
2712;SDS011;1366;47.988;7.856;2022-09-25T07:03:35;5.10;;;4.70;;
2712;SDS011;1366;47.988;7.856;2022-09-25T07:06:13;5.90;;;5.40;;
2712;SDS011;1366;47.988;7.856;2022-09-25T07:08:40;5.07;;;4.70;;
2712;SDS011;1366;47.988;7.856;2022-09-25T07:11:09;6.60;;;6.00;;
2712;SDS011;1366;47.988;7.856;2022-09-25T07:13:36;6.07;;;5.60;;
2712;SDS011;1366;47.988;7.856;2022-09-25T07:16:04;6.00;;;5.50;;
2712;SDS011;1366;47.988;7.856;2022-09-25T07:18:30;5.80;;;5.30;;
2712;SDS011;1366;47.988;7.856;2022-09-25T07:21:00;5.90;;;5.30;;
2712;SDS011;1366;47.988;7.856;2022-09-25T07:23:27;6.93;;;6.37;;
2712;SDS011;1366;47.988;7.856;2022-09-25T07:25:55;8.10;;;7.30;;
2712;SDS011;1366;47.988;7.856;2022-09-25T07:28:21;8.97;;;8.13;;
2712;SDS011;1366;47.988;7.856;2022-09-25T07:30:47;8.67;;;7.80;;
2712;SDS011;1366;47.988;7.856;2022-09-25T07:33:14;8.37;;;7.57;;
2712;SDS011;1366;47.988;7.856;2022-09-25T07:35:40;6.80;;;6.20;;
2712;SDS011;1366;47.988;7.856;2022-09-25T07:38:06;7.43;;;6.63;;
2712;SDS011;1366;47.988;7.856;2022-09-25T07:40:32;7.37;;;6.67;;
2712;SDS011;1366;47.988;7.856;2022-09-25T07:43:05;7.33;;;6.73;;
2712;SDS011;1366;47.988;7.856;2022-09-25T07:45:31;7.40;;;6.70;;
2712;SDS011;1366;47.988;7.856;2022-09-25T07:47:58;7.60;;;6.50;;
2712;SDS011;1366;47.988;7.856;2022-09-25T07:50:25;7.40;;;6.67;;
2712;SDS011;1366;47.988;7.856;2022-09-25T07:52:51;9.90;;;6.43;;
2712;SDS011;1366;47.988;7.856;2022-09-25T07:55:17;6.50;;;5.90;;
2712;SDS011;1366;47.988;7.856;2022-09-25T07:57:44;8.30;;;6.90;;
2712;SDS011;1366;47.988;7.856;2022-09-25T08:00:10;7.23;;;6.53;;
2712;SDS011;1366;47.988;7.856;2022-09-25T08:02:36;6.77;;;6.27;;
2712;SDS011;1366;47.988;7.856;2022-09-25T08:05:03;8.60;;;7.23;;
2712;SDS011;1366;47.988;7.856;2022-09-25T08:07:29;7.93;;;6.90;;
2712;SDS011;1366;47.988;7.856;2022-09-25T08:09:55;7.40;;;6.70;;
2712;SDS011;1366;47.988;7.856;2022-09-25T08:12:21;8.43;;;7.63;;
2712;SDS011;1366;47.988;7.856;2022-09-25T08:14:50;9.63;;;8.03;;
2712;SDS011;1366;47.988;7.856;2022-09-25T08:17:17;9.77;;;8.20;;
2712;SDS011;1366;47.988;7.856;2022-09-25T08:19:43;11.13;;;7.83;;
2712;SDS011;1366;47.988;7.856;2022-09-25T08:22:09;9.40;;;8.37;;
2712;SDS011;1366;47.988;7.856;2022-09-25T08:24:35;8.30;;;7.50;;
2712;SDS011;1366;47.988;7.856;2022-09-25T08:27:02;8.33;;;7.50;;
2712;SDS011;1366;47.988;7.856;2022-09-25T08:29:28;8.67;;;7.77;;
2712;SDS011;1366;47.988;7.856;2022-09-25T08:31:55;9.20;;;7.43;;
2712;SDS011;1366;47.988;7.856;2022-09-25T08:34:21;9.43;;;8.47;;
2712;SDS011;1366;47.988;7.856;2022-09-25T08:36:48;8.80;;;7.90;;
2712;SDS011;1366;47.988;7.856;2022-09-25T08:39:14;8.73;;;7.77;;
2712;SDS011;1366;47.988;7.856;2022-09-25T08:41:50;10.30;;;8.23;;
2712;SDS011;1366;47.988;7.856;2022-09-25T08:50:04;9.97;;;7.50;;
2712;SDS011;1366;47.988;7.856;2022-09-25T08:52:32;7.90;;;7.10;;
2712;SDS011;1366;47.988;7.856;2022-09-25T08:54:58;7.70;;;6.80;;
2712;SDS011;1366;47.988;7.856;2022-09-25T08:59:55;7.83;;;7.03;;
2712;SDS011;1366;47.988;7.856;2022-09-25T09:02:25;7.17;;;6.40;;
2712;SDS011;1366;47.988;7.856;2022-09-25T09:04:56;8.17;;;7.37;;
2712;SDS011;1366;47.988;7.856;2022-09-25T09:07:26;9.10;;;7.37;;
2712;SDS011;1366;47.988;7.856;2022-09-25T09:10:01;9.97;;;8.70;;
2712;SDS011;1366;47.988;7.856;2022-09-25T09:14:58;13.80;;;11.57;;
2712;SDS011;1366;47.988;7.856;2022-09-25T09:17:30;9.97;;;9.00;;
2712;SDS011;1366;47.988;7.856;2022-09-25T09:20:11;13.57;;;10.67;;
2712;SDS011;1366;47.988;7.856;2022-09-25T09:22:44;9.80;;;8.50;;
2712;SDS011;1366;47.988;7.856;2022-09-25T09:30:20;10.03;;;9.03;;
2712;SDS011;1366;47.988;7.856;2022-09-25T09:37:53;9.13;;;7.47;;
2712;SDS011;1366;47.988;7.856;2022-09-25T09:48:11;7.50;;;6.77;;
2712;SDS011;1366;47.988;7.856;2022-09-25T09:50:41;8.90;;;7.93;;
2712;SDS011;1366;47.988;7.856;2022-09-25T09:53:14;8.47;;;6.60;;
2712;SDS011;1366;47.988;7.856;2022-09-25T09:55:44;10.63;;;8.03;;
2712;SDS011;1366;47.988;7.856;2022-09-25T09:58:26;7.33;;;6.63;;
2712;SDS011;1366;47.988;7.856;2022-09-25T10:00:54;7.63;;;6.43;;
2712;SDS011;1366;47.988;7.856;2022-09-25T10:05:48;7.50;;;6.80;;
2712;SDS011;1366;47.988;7.856;2022-09-25T10:08:14;7.80;;;7.10;;
2712;SDS011;1366;47.988;7.856;2022-09-25T10:10:45;8.00;;;7.20;;
2712;SDS011;1366;47.988;7.856;2022-09-25T10:13:24;8.10;;;6.67;;
2712;SDS011;1366;47.988;7.856;2022-09-25T10:18:27;6.87;;;5.73;;
2712;SDS011;1366;47.988;7.856;2022-09-25T10:21:01;7.97;;;7.17;;
2712;SDS011;1366;47.988;7.856;2022-09-25T10:23:34;7.87;;;7.07;;
2712;SDS011;1366;47.988;7.856;2022-09-25T10:26:00;7.30;;;6.17;;
2712;SDS011;1366;47.988;7.856;2022-09-25T10:28:33;7.70;;;6.97;;
2712;SDS011;1366;47.988;7.856;2022-09-25T10:31:00;7.87;;;7.07;;
2712;SDS011;1366;47.988;7.856;2022-09-25T10:33:28;9.77;;;7.90;;
2712;SDS011;1366;47.988;7.856;2022-09-25T10:35:55;7.07;;;6.37;;
2712;SDS011;1366;47.988;7.856;2022-09-25T10:38:29;7.07;;;6.27;;
2712;SDS011;1366;47.988;7.856;2022-09-25T10:41:18;7.57;;;6.57;;
2712;SDS011;1366;47.988;7.856;2022-09-25T10:46:18;7.23;;;6.63;;
2712;SDS011;1366;47.988;7.856;2022-09-25T10:49:14;7.57;;;6.87;;
2712;SDS011;1366;47.988;7.856;2022-09-25T10:52:17;6.53;;;5.87;;
2712;SDS011;1366;47.988;7.856;2022-09-25T10:54:43;6.40;;;5.40;;
2712;SDS011;1366;47.988;7.856;2022-09-25T10:57:13;5.43;;;4.93;;
2712;SDS011;1366;47.988;7.856;2022-09-25T10:59:45;6.00;;;5.50;;
2712;SDS011;1366;47.988;7.856;2022-09-25T11:02:17;5.33;;;4.93;;
2712;SDS011;1366;47.988;7.856;2022-09-25T11:04:47;6.13;;;5.60;;
2712;SDS011;1366;47.988;7.856;2022-09-25T11:07:16;5.80;;;5.30;;
2712;SDS011;1366;47.988;7.856;2022-09-25T11:09:44;5.83;;;5.40;;
2712;SDS011;1366;47.988;7.856;2022-09-25T11:12:21;6.93;;;6.00;;
2712;SDS011;1366;47.988;7.856;2022-09-25T11:14:53;6.00;;;5.50;;
2712;SDS011;1366;47.988;7.856;2022-09-25T11:17:38;6.07;;;4.90;;
2712;SDS011;1366;47.988;7.856;2022-09-25T11:22:47;6.40;;;5.90;;
2712;SDS011;1366;47.988;7.856;2022-09-25T11:27:49;7.17;;;6.53;;
2712;SDS011;1366;47.988;7.856;2022-09-25T11:30:18;5.97;;;5.43;;
2712;SDS011;1366;47.988;7.856;2022-09-25T11:43:03;5.90;;;5.40;;
2712;SDS011;1366;47.988;7.856;2022-09-25T11:45:33;6.10;;;4.90;;
2712;SDS011;1366;47.988;7.856;2022-09-25T11:48:05;5.80;;;5.33;;
2712;SDS011;1366;47.988;7.856;2022-09-25T11:53:45;5.33;;;4.83;;
2712;SDS011;1366;47.988;7.856;2022-09-25T12:12:18;6.40;;;5.10;;
2712;SDS011;1366;47.988;7.856;2022-09-25T12:25:29;5.53;;;4.97;;
2712;SDS011;1366;47.988;7.856;2022-09-25T12:30:30;6.60;;;5.60;;
2712;SDS011;1366;47.988;7.856;2022-09-25T12:41:22;5.50;;;5.00;;
2712;SDS011;1366;47.988;7.856;2022-09-25T12:46:35;5.40;;;5.00;;
2712;SDS011;1366;47.988;7.856;2022-09-25T12:56:45;6.47;;;5.77;;
2712;SDS011;1366;47.988;7.856;2022-09-25T13:02:03;6.17;;;5.10;;
2712;SDS011;1366;47.988;7.856;2022-09-25T13:04:32;5.20;;;4.80;;
2712;SDS011;1366;47.988;7.856;2022-09-25T13:07:03;5.40;;;4.90;;
2712;SDS011;1366;47.988;7.856;2022-09-25T13:09:46;5.53;;;5.03;;
2712;SDS011;1366;47.988;7.856;2022-09-25T13:12:32;5.13;;;4.63;;
2712;SDS011;1366;47.988;7.856;2022-09-25T13:15:04;6.33;;;5.80;;
2712;SDS011;1366;47.988;7.856;2022-09-25T13:17:33;6.27;;;5.67;;
2712;SDS011;1366;47.988;7.856;2022-09-25T13:22:44;6.17;;;5.67;;
2712;SDS011;1366;47.988;7.856;2022-09-25T13:25:11;5.90;;;5.40;;
2712;SDS011;1366;47.988;7.856;2022-09-25T13:27:40;6.20;;;5.60;;
2712;SDS011;1366;47.988;7.856;2022-09-25T13:30:18;7.23;;;6.30;;
2712;SDS011;1366;47.988;7.856;2022-09-25T13:32:47;6.50;;;5.90;;
2712;SDS011;1366;47.988;7.856;2022-09-25T13:35:15;6.00;;;5.50;;
2712;SDS011;1366;47.988;7.856;2022-09-25T13:37:42;7.97;;;7.27;;
2712;SDS011;1366;47.988;7.856;2022-09-25T13:40:15;6.57;;;5.97;;
2712;SDS011;1366;47.988;7.856;2022-09-25T13:45:44;6.87;;;6.17;;
2712;SDS011;1366;47.988;7.856;2022-09-25T13:50:52;6.23;;;5.73;;
2712;SDS011;1366;47.988;7.856;2022-09-25T13:56:24;6.63;;;5.97;;
2712;SDS011;1366;47.988;7.856;2022-09-25T14:01:33;5.93;;;5.43;;
2712;SDS011;1366;47.988;7.856;2022-09-25T14:03:59;7.07;;;6.40;;
2712;SDS011;1366;47.988;7.856;2022-09-25T14:06:27;6.93;;;6.33;;
2712;SDS011;1366;47.988;7.856;2022-09-25T14:08:58;6.67;;;5.93;;
2712;SDS011;1366;47.988;7.856;2022-09-25T14:11:25;7.00;;;6.33;;
2712;SDS011;1366;47.988;7.856;2022-09-25T14:13:52;6.57;;;6.07;;
2712;SDS011;1366;47.988;7.856;2022-09-25T14:16:22;7.10;;;5.70;;
2712;SDS011;1366;47.988;7.856;2022-09-25T14:18:49;6.67;;;6.17;;
2712;SDS011;1366;47.988;7.856;2022-09-25T14:21:17;7.70;;;6.90;;
2712;SDS011;1366;47.988;7.856;2022-09-25T14:23:48;6.87;;;6.23;;
2712;SDS011;1366;47.988;7.856;2022-09-25T14:26:21;6.37;;;5.73;;
2712;SDS011;1366;47.988;7.856;2022-09-25T14:28:49;5.97;;;5.37;;
2712;SDS011;1366;47.988;7.856;2022-09-25T14:39:36;5.87;;;5.20;;
2712;SDS011;1366;47.988;7.856;2022-09-25T14:47:18;4.43;;;4.10;;
2712;SDS011;1366;47.988;7.856;2022-09-25T14:49:46;4.33;;;4.03;;
2712;SDS011;1366;47.988;7.856;2022-09-25T14:52:16;4.10;;;3.70;;
2712;SDS011;1366;47.988;7.856;2022-09-25T14:54:45;5.40;;;4.17;;
2712;SDS011;1366;47.988;7.856;2022-09-25T14:57:16;6.00;;;4.00;;
2712;SDS011;1366;47.988;7.856;2022-09-25T14:59:49;4.10;;;3.80;;
2712;SDS011;1366;47.988;7.856;2022-09-25T15:02:17;4.40;;;4.10;;
2712;SDS011;1366;47.988;7.856;2022-09-25T15:04:46;5.30;;;3.70;;
2712;SDS011;1366;47.988;7.856;2022-09-25T15:07:17;4.00;;;3.70;;
2712;SDS011;1366;47.988;7.856;2022-09-25T15:09:44;5.13;;;4.73;;
2712;SDS011;1366;47.988;7.856;2022-09-25T15:15:28;4.67;;;4.20;;
2712;SDS011;1366;47.988;7.856;2022-09-25T15:17:29;3.53;;;3.33;;
2712;SDS011;1366;47.988;7.856;2022-09-25T15:19:57;4.00;;;3.70;;
2712;SDS011;1366;47.988;7.856;2022-09-25T15:22:27;3.93;;;3.63;;
2712;SDS011;1366;47.988;7.856;2022-09-25T15:24:56;3.30;;;3.00;;
2712;SDS011;1366;47.988;7.856;2022-09-25T15:27:23;3.90;;;3.60;;
2712;SDS011;1366;47.988;7.856;2022-09-25T15:29:51;3.73;;;3.53;;
2712;SDS011;1366;47.988;7.856;2022-09-25T15:32:36;4.40;;;4.10;;
2712;SDS011;1366;47.988;7.856;2022-09-25T15:37:35;5.17;;;4.67;;
2712;SDS011;1366;47.988;7.856;2022-09-25T15:42:45;5.60;;;5.10;;
2712;SDS011;1366;47.988;7.856;2022-09-25T15:47:56;4.90;;;4.60;;
2712;SDS011;1366;47.988;7.856;2022-09-25T15:50:23;5.73;;;4.90;;
2712;SDS011;1366;47.988;7.856;2022-09-25T15:52:51;4.93;;;4.53;;
2712;SDS011;1366;47.988;7.856;2022-09-25T15:55:17;5.17;;;4.77;;
2712;SDS011;1366;47.988;7.856;2022-09-25T15:57:44;4.73;;;4.43;;
2712;SDS011;1366;47.988;7.856;2022-09-25T16:00:29;6.03;;;5.53;;
2712;SDS011;1366;47.988;7.856;2022-09-25T16:03:21;7.07;;;6.47;;
2712;SDS011;1366;47.988;7.856;2022-09-25T16:06:16;6.10;;;5.60;;
2712;SDS011;1366;47.988;7.856;2022-09-25T16:08:42;5.97;;;5.50;;
2712;SDS011;1366;47.988;7.856;2022-09-25T16:13:36;6.80;;;6.20;;
2712;SDS011;1366;47.988;7.856;2022-09-25T16:16:03;6.80;;;6.23;;
2712;SDS011;1366;47.988;7.856;2022-09-25T16:18:41;6.40;;;5.60;;
2712;SDS011;1366;47.988;7.856;2022-09-25T16:21:12;6.60;;;5.63;;
2712;SDS011;1366;47.988;7.856;2022-09-25T16:23:39;4.93;;;4.53;;
2712;SDS011;1366;47.988;7.856;2022-09-25T16:26:14;5.07;;;4.67;;
2712;SDS011;1366;47.988;7.856;2022-09-25T16:28:43;5.50;;;4.93;;
2712;SDS011;1366;47.988;7.856;2022-09-25T16:31:13;5.33;;;4.83;;
2712;SDS011;1366;47.988;7.856;2022-09-25T16:33:47;8.97;;;8.17;;
2712;SDS011;1366;47.988;7.856;2022-09-25T16:36:14;8.83;;;8.03;;
2712;SDS011;1366;47.988;7.856;2022-09-25T16:38:43;8.70;;;7.90;;
2712;SDS011;1366;47.988;7.856;2022-09-25T16:41:26;6.77;;;6.27;;
2712;SDS011;1366;47.988;7.856;2022-09-25T16:49:24;10.50;;;9.50;;
2712;SDS011;1366;47.988;7.856;2022-09-25T16:51:50;8.50;;;7.80;;
2712;SDS011;1366;47.988;7.856;2022-09-25T16:54:18;7.77;;;7.00;;
2712;SDS011;1366;47.988;7.856;2022-09-25T16:56:45;9.87;;;8.43;;
2712;SDS011;1366;47.988;7.856;2022-09-25T17:01:45;16.90;;;12.73;;
2712;SDS011;1366;47.988;7.856;2022-09-25T17:04:12;21.83;;;16.33;;
2712;SDS011;1366;47.988;7.856;2022-09-25T17:06:39;21.87;;;16.60;;
2712;SDS011;1366;47.988;7.856;2022-09-25T17:09:11;22.93;;;15.20;;
2712;SDS011;1366;47.988;7.856;2022-09-25T17:11:38;24.20;;;14.97;;
2712;SDS011;1366;47.988;7.856;2022-09-25T17:14:05;26.40;;;16.07;;
2712;SDS011;1366;47.988;7.856;2022-09-25T17:16:32;12.63;;;10.40;;
2712;SDS011;1366;47.988;7.856;2022-09-25T17:18:58;7.30;;;6.70;;
2712;SDS011;1366;47.988;7.856;2022-09-25T17:21:24;7.90;;;7.20;;
2712;SDS011;1366;47.988;7.856;2022-09-25T17:23:50;8.73;;;7.87;;
2712;SDS011;1366;47.988;7.856;2022-09-25T17:26:17;12.47;;;11.20;;
2712;SDS011;1366;47.988;7.856;2022-09-25T17:28:45;15.30;;;13.37;;
2712;SDS011;1366;47.988;7.856;2022-09-25T17:31:11;14.27;;;12.87;;
2712;SDS011;1366;47.988;7.856;2022-09-25T17:33:38;11.33;;;10.23;;
2712;SDS011;1366;47.988;7.856;2022-09-25T17:36:05;10.30;;;9.40;;
2712;SDS011;1366;47.988;7.856;2022-09-25T17:38:32;10.50;;;9.50;;
2712;SDS011;1366;47.988;7.856;2022-09-25T17:41:02;8.10;;;7.40;;
2712;SDS011;1366;47.988;7.856;2022-09-25T17:43:28;6.50;;;5.97;;
2712;SDS011;1366;47.988;7.856;2022-09-25T17:45:55;6.17;;;5.67;;
2712;SDS011;1366;47.988;7.856;2022-09-25T17:48:23;6.53;;;6.03;;
2712;SDS011;1366;47.988;7.856;2022-09-25T17:50:53;6.80;;;6.20;;
2712;SDS011;1366;47.988;7.856;2022-09-25T17:53:20;6.07;;;5.47;;
2712;SDS011;1366;47.988;7.856;2022-09-25T17:55:47;6.03;;;5.57;;
2712;SDS011;1366;47.988;7.856;2022-09-25T17:58:14;6.27;;;5.70;;
2712;SDS011;1366;47.988;7.856;2022-09-25T18:00:40;5.37;;;4.87;;
2712;SDS011;1366;47.988;7.856;2022-09-25T18:03:07;5.07;;;4.57;;
2712;SDS011;1366;47.988;7.856;2022-09-25T18:05:33;5.00;;;4.60;;
2712;SDS011;1366;47.988;7.856;2022-09-25T18:07:59;4.83;;;4.53;;
2712;SDS011;1366;47.988;7.856;2022-09-25T18:10:25;4.90;;;4.50;;
2712;SDS011;1366;47.988;7.856;2022-09-25T18:12:53;5.33;;;4.93;;
2712;SDS011;1366;47.988;7.856;2022-09-25T18:15:20;5.00;;;4.60;;
2712;SDS011;1366;47.988;7.856;2022-09-25T18:17:46;6.33;;;4.30;;
2712;SDS011;1366;47.988;7.856;2022-09-25T18:20:12;4.10;;;3.80;;
2712;SDS011;1366;47.988;7.856;2022-09-25T18:22:57;4.87;;;4.47;;
2712;SDS011;1366;47.988;7.856;2022-09-25T18:25:23;4.93;;;4.53;;
2712;SDS011;1366;47.988;7.856;2022-09-25T18:27:49;4.80;;;4.27;;
2712;SDS011;1366;47.988;7.856;2022-09-25T18:30:17;4.70;;;4.40;;
2712;SDS011;1366;47.988;7.856;2022-09-25T18:32:45;4.43;;;4.13;;
2712;SDS011;1366;47.988;7.856;2022-09-25T18:35:13;5.13;;;4.70;;
2712;SDS011;1366;47.988;7.856;2022-09-25T18:37:39;5.43;;;5.03;;
2712;SDS011;1366;47.988;7.856;2022-09-25T18:40:06;5.10;;;4.70;;
2712;SDS011;1366;47.988;7.856;2022-09-25T18:42:32;5.20;;;4.70;;
2712;SDS011;1366;47.988;7.856;2022-09-25T18:44:58;5.47;;;5.07;;
2712;SDS011;1366;47.988;7.856;2022-09-25T18:47:24;5.53;;;5.13;;
2712;SDS011;1366;47.988;7.856;2022-09-25T18:49:51;5.13;;;4.73;;
2712;SDS011;1366;47.988;7.856;2022-09-25T18:52:17;5.43;;;4.93;;
2712;SDS011;1366;47.988;7.856;2022-09-25T18:54:44;5.70;;;5.20;;
2712;SDS011;1366;47.988;7.856;2022-09-25T18:57:10;4.90;;;4.50;;
2712;SDS011;1366;47.988;7.856;2022-09-25T18:59:37;5.10;;;4.70;;
2712;SDS011;1366;47.988;7.856;2022-09-25T19:02:04;5.30;;;4.73;;
2712;SDS011;1366;47.988;7.856;2022-09-25T19:04:30;6.53;;;5.60;;
2712;SDS011;1366;47.988;7.856;2022-09-25T19:06:56;6.40;;;5.40;;
2712;SDS011;1366;47.988;7.856;2022-09-25T19:09:22;7.27;;;6.57;;
2712;SDS011;1366;47.988;7.856;2022-09-25T19:11:51;7.57;;;6.83;;
2712;SDS011;1366;47.988;7.856;2022-09-25T19:14:18;5.80;;;5.30;;
2712;SDS011;1366;47.988;7.856;2022-09-25T19:16:44;5.63;;;5.23;;
2712;SDS011;1366;47.988;7.856;2022-09-25T19:19:17;5.83;;;5.33;;
2712;SDS011;1366;47.988;7.856;2022-09-25T19:21:43;5.20;;;4.70;;
2712;SDS011;1366;47.988;7.856;2022-09-25T19:24:09;6.70;;;5.33;;
2712;SDS011;1366;47.988;7.856;2022-09-25T19:26:36;5.70;;;5.20;;
2712;SDS011;1366;47.988;7.856;2022-09-25T19:29:02;6.60;;;6.00;;
2712;SDS011;1366;47.988;7.856;2022-09-25T19:31:31;6.53;;;5.93;;
2712;SDS011;1366;47.988;7.856;2022-09-25T19:33:57;5.97;;;5.57;;
2712;SDS011;1366;47.988;7.856;2022-09-25T19:36:27;6.57;;;6.00;;
2712;SDS011;1366;47.988;7.856;2022-09-25T19:38:56;7.87;;;5.93;;
2712;SDS011;1366;47.988;7.856;2022-09-25T19:41:24;6.93;;;6.33;;
2712;SDS011;1366;47.988;7.856;2022-09-25T19:43:52;7.40;;;6.80;;
2712;SDS011;1366;47.988;7.856;2022-09-25T19:46:20;9.07;;;8.27;;
2712;SDS011;1366;47.988;7.856;2022-09-25T19:48:47;7.23;;;6.63;;
2712;SDS011;1366;47.988;7.856;2022-09-25T19:51:13;7.63;;;6.93;;
2712;SDS011;1366;47.988;7.856;2022-09-25T19:53:40;12.40;;;6.90;;
2712;SDS011;1366;47.988;7.856;2022-09-25T19:56:07;7.00;;;6.40;;
2712;SDS011;1366;47.988;7.856;2022-09-25T19:58:33;6.33;;;5.80;;
2712;SDS011;1366;47.988;7.856;2022-09-25T20:01:11;9.10;;;7.07;;
2712;SDS011;1366;47.988;7.856;2022-09-25T20:03:38;6.37;;;5.87;;
2712;SDS011;1366;47.988;7.856;2022-09-25T20:06:04;6.63;;;6.10;;
2712;SDS011;1366;47.988;7.856;2022-09-25T20:08:30;6.70;;;6.00;;
2712;SDS011;1366;47.988;7.856;2022-09-25T20:10:57;6.17;;;5.60;;
2712;SDS011;1366;47.988;7.856;2022-09-25T20:13:23;5.50;;;5.07;;
2712;SDS011;1366;47.988;7.856;2022-09-25T20:15:49;5.20;;;4.80;;
2712;SDS011;1366;47.988;7.856;2022-09-25T20:18:15;4.03;;;3.73;;
2712;SDS011;1366;47.988;7.856;2022-09-25T20:20:42;4.83;;;4.43;;
2712;SDS011;1366;47.988;7.856;2022-09-25T20:23:08;4.23;;;3.93;;
2712;SDS011;1366;47.988;7.856;2022-09-25T20:25:34;4.80;;;4.40;;
2712;SDS011;1366;47.988;7.856;2022-09-25T20:28:01;3.70;;;3.40;;
2712;SDS011;1366;47.988;7.856;2022-09-25T20:30:27;3.20;;;3.00;;
2712;SDS011;1366;47.988;7.856;2022-09-25T20:32:53;3.83;;;3.53;;
2712;SDS011;1366;47.988;7.856;2022-09-25T20:35:20;3.60;;;3.40;;
2712;SDS011;1366;47.988;7.856;2022-09-25T20:37:46;3.53;;;3.33;;
2712;SDS011;1366;47.988;7.856;2022-09-25T20:40:13;3.73;;;3.43;;
2712;SDS011;1366;47.988;7.856;2022-09-25T20:42:39;3.97;;;3.67;;
2712;SDS011;1366;47.988;7.856;2022-09-25T20:45:06;3.60;;;3.30;;
2712;SDS011;1366;47.988;7.856;2022-09-25T20:47:33;3.70;;;3.40;;
2712;SDS011;1366;47.988;7.856;2022-09-25T20:50:00;3.77;;;3.47;;
2712;SDS011;1366;47.988;7.856;2022-09-25T20:52:26;3.63;;;3.37;;
2712;SDS011;1366;47.988;7.856;2022-09-25T20:54:52;3.57;;;3.27;;
2712;SDS011;1366;47.988;7.856;2022-09-25T20:57:20;3.50;;;3.23;;
2712;SDS011;1366;47.988;7.856;2022-09-25T20:59:47;3.80;;;3.50;;
2712;SDS011;1366;47.988;7.856;2022-09-25T21:02:13;3.80;;;3.50;;
2712;SDS011;1366;47.988;7.856;2022-09-25T21:04:39;3.50;;;3.20;;
2712;SDS011;1366;47.988;7.856;2022-09-25T21:07:06;3.53;;;3.23;;
2712;SDS011;1366;47.988;7.856;2022-09-25T21:09:32;3.90;;;3.43;;
2712;SDS011;1366;47.988;7.856;2022-09-25T21:11:58;3.67;;;3.33;;
2712;SDS011;1366;47.988;7.856;2022-09-25T21:14:25;3.10;;;2.90;;
2712;SDS011;1366;47.988;7.856;2022-09-25T21:16:52;7.10;;;4.30;;
2712;SDS011;1366;47.988;7.856;2022-09-25T21:19:20;3.10;;;2.90;;
2712;SDS011;1366;47.988;7.856;2022-09-25T21:21:46;3.37;;;3.17;;
2712;SDS011;1366;47.988;7.856;2022-09-25T21:24:13;4.17;;;3.60;;
2712;SDS011;1366;47.988;7.856;2022-09-25T21:26:40;3.60;;;3.30;;
2712;SDS011;1366;47.988;7.856;2022-09-25T21:29:06;4.60;;;3.50;;
2712;SDS011;1366;47.988;7.856;2022-09-25T21:31:35;3.00;;;2.80;;
2712;SDS011;1366;47.988;7.856;2022-09-25T21:34:09;3.70;;;3.50;;
2712;SDS011;1366;47.988;7.856;2022-09-25T21:36:35;3.53;;;3.23;;
2712;SDS011;1366;47.988;7.856;2022-09-25T21:39:03;3.60;;;3.30;;
2712;SDS011;1366;47.988;7.856;2022-09-25T21:41:29;3.50;;;3.30;;
2712;SDS011;1366;47.988;7.856;2022-09-25T21:43:57;3.40;;;3.20;;
2712;SDS011;1366;47.988;7.856;2022-09-25T21:46:24;4.13;;;3.83;;
2712;SDS011;1366;47.988;7.856;2022-09-25T21:48:52;3.97;;;3.67;;
2712;SDS011;1366;47.988;7.856;2022-09-25T21:51:19;3.87;;;3.57;;
2712;SDS011;1366;47.988;7.856;2022-09-25T21:53:46;3.97;;;3.67;;
2712;SDS011;1366;47.988;7.856;2022-09-25T21:56:13;3.80;;;3.50;;
2712;SDS011;1366;47.988;7.856;2022-09-25T21:58:41;3.90;;;3.60;;
